createdAt,value
2022-11-01T00:03:07.740Z,10.30
2022-11-01T00:08:12.576Z,10.20
2022-11-01T00:13:15.916Z,10.20
2022-11-01T00:18:19.129Z,10.30
2022-11-01T00:23:23.804Z,10.20
2022-11-01T00:28:26.992Z,10.20
2022-11-01T00:33:30.221Z,10.00
2022-11-01T00:38:38.167Z,9.80
2022-11-01T00:43:41.798Z,9.60
2022-11-01T00:48:45.193Z,9.50
2022-11-01T00:53:50.170Z,9.40
2022-11-01T00:58:53.526Z,9.40
2022-11-01T01:03:56.873Z,9.40
2022-11-01T01:09:02.973Z,9.40
2022-11-01T01:14:11.911Z,9.40
2022-11-01T01:19:15.229Z,9.40
2022-11-01T01:24:20.168Z,9.40
2022-11-01T01:29:23.398Z,9.40
2022-11-01T01:34:26.650Z,9.30
2022-11-01T01:39:31.337Z,9.30
2022-11-01T01:45:16.833Z,9.30
2022-11-01T01:50:26.217Z,9.30
2022-11-01T01:55:34.280Z,9.20
2022-11-01T02:00:37.760Z,9.20
2022-11-01T02:05:45.682Z,9.10
2022-11-01T02:10:50.688Z,9.20
2022-11-01T02:16:20.544Z,9.20
2022-11-01T02:21:51.624Z,9.40
2022-11-01T02:27:08.164Z,9.60
2022-11-01T02:32:26.286Z,9.80
2022-11-01T02:37:35.485Z,9.90
2022-11-01T02:42:43.421Z,10.00
2022-11-01T02:47:51.199Z,10.00
2022-11-01T02:52:55.208Z,10.10
2022-11-01T02:58:01.289Z,10.20
2022-11-01T03:03:12.877Z,10.20
2022-11-01T03:08:20.221Z,10.20
2022-11-01T03:13:36.602Z,10.10
2022-11-01T03:18:52.128Z,10.10
2022-11-01T03:24:02.836Z,10.10
2022-11-01T03:29:12.537Z,10.10
2022-11-01T03:34:20.215Z,10.20
2022-11-01T03:39:28.468Z,10.30
2022-11-01T03:44:37.531Z,10.30
2022-11-01T03:49:45.329Z,10.40
2022-11-01T03:54:48.695Z,10.40
2022-11-01T03:59:51.992Z,10.50
2022-11-01T04:04:56.817Z,10.60
2022-11-01T04:10:01.271Z,10.70
2022-11-01T04:15:22.598Z,10.80
2022-11-01T04:20:36.519Z,10.90
2022-11-01T04:25:40.003Z,11.00
2022-11-01T04:30:43.928Z,11.10
2022-11-01T04:35:48.871Z,11.20
2022-11-01T04:40:52.090Z,11.30
2022-11-01T04:45:55.998Z,11.50
2022-11-01T04:51:02.514Z,11.70
2022-11-01T04:56:08.995Z,11.80
2022-11-01T05:01:14.684Z,12.20
2022-11-01T05:06:19.922Z,12.60
2022-11-01T05:11:25.809Z,12.70
2022-11-01T05:16:29.224Z,12.90
2022-11-01T05:21:33.850Z,13.20
2022-11-01T05:26:37.107Z,13.30
2022-11-01T05:31:40.320Z,13.50
2022-11-01T05:36:44.998Z,13.60
2022-11-01T05:41:48.320Z,13.40
2022-11-01T05:46:51.702Z,13.20
2022-11-01T05:51:56.409Z,13.10
2022-11-01T05:56:59.718Z,12.90
2022-11-01T06:02:04.118Z,12.80
2022-11-01T06:07:08.941Z,12.70
2022-11-01T06:12:12.288Z,12.60
2022-11-01T06:17:15.720Z,12.70
2022-11-01T06:22:21.397Z,12.90
2022-11-01T06:27:24.695Z,13.10
2022-11-01T06:32:27.975Z,13.10
2022-11-01T06:37:32.856Z,13.10
2022-11-01T06:42:36.202Z,13.30
2022-11-01T06:47:39.644Z,13.40
2022-11-01T06:52:44.250Z,13.30
2022-11-01T06:57:56.092Z,13.40
2022-11-01T07:03:07.143Z,13.40
2022-11-01T07:08:13.958Z,13.40
2022-11-01T07:13:18.332Z,13.30
2022-11-01T07:18:23.745Z,13.30
2022-11-01T07:23:29.510Z,13.30
2022-11-01T07:28:32.961Z,13.40
2022-11-01T07:33:36.385Z,13.50
2022-11-01T07:38:41.162Z,13.60
2022-11-01T07:43:44.456Z,13.70
2022-11-01T07:48:47.793Z,13.80
2022-11-01T07:53:53.554Z,14.00
2022-11-01T07:58:56.944Z,14.20
2022-11-01T08:04:00.354Z,14.40
2022-11-01T08:09:05.154Z,14.40
2022-11-01T08:14:15.387Z,14.50
2022-11-01T08:19:18.705Z,14.80
2022-11-01T08:24:24.917Z,14.90
2022-11-01T08:29:28.206Z,15.10
2022-11-01T08:34:31.838Z,15.20
2022-11-01T08:39:36.581Z,15.40
2022-11-01T08:50:11.280Z,15.80
2022-11-01T08:55:16.227Z,15.90
2022-11-01T09:00:21.540Z,16.00
2022-11-01T09:05:25.832Z,15.90
2022-11-01T09:10:30.968Z,15.80
2022-11-01T09:15:34.652Z,15.80
2022-11-01T09:20:38.150Z,15.70
2022-11-01T09:25:42.773Z,15.90
2022-11-01T09:30:50.245Z,16.60
2022-11-01T09:36:05.081Z,17.50
2022-11-01T09:41:17.132Z,18.10
2022-11-01T09:46:25.963Z,18.60
2022-11-01T09:51:30.467Z,18.90
2022-11-01T09:56:42.128Z,18.70
2022-11-01T10:01:53.652Z,18.40
2022-11-01T10:07:02.436Z,18.50
2022-11-01T10:12:20.136Z,19.00
2022-11-01T10:17:37.297Z,19.30
2022-11-01T10:22:43.705Z,19.50
2022-11-01T10:27:54.902Z,19.00
2022-11-01T10:33:03.106Z,18.70
2022-11-01T10:38:25.022Z,18.70
2022-11-01T10:43:42.196Z,18.70
2022-11-01T10:48:49.684Z,18.30
2022-11-01T10:54:00.309Z,18.40
2022-11-01T10:59:08.503Z,18.30
2022-11-01T11:04:15.753Z,18.40
2022-11-01T11:09:25.455Z,18.30
2022-11-01T11:14:32.728Z,18.40
2022-11-01T11:19:38.492Z,18.50
2022-11-01T11:24:44.503Z,18.50
2022-11-01T11:29:51.799Z,18.30
2022-11-01T11:34:58.751Z,18.20
2022-11-01T11:40:25.818Z,18.40
2022-11-01T11:45:32.133Z,18.50
2022-11-01T11:50:37.965Z,18.60
2022-11-01T11:55:44.167Z,18.40
2022-11-01T12:00:52.917Z,18.20
2022-11-01T12:05:59.920Z,18.30
2022-11-01T12:11:04.047Z,18.20
2022-11-01T12:16:17.841Z,18.30
2022-11-01T12:21:25.488Z,18.50
2022-11-01T12:26:32.576Z,18.80
2022-11-01T12:31:39.454Z,18.80
2022-11-01T12:36:46.501Z,18.80
2022-11-01T12:41:55.680Z,18.90
2022-11-01T12:47:07.184Z,18.60
2022-11-01T12:52:19.099Z,18.60
2022-11-01T12:57:22.433Z,18.40
2022-11-01T13:02:47.494Z,18.20
2022-11-01T13:08:02.758Z,18.00
2022-11-01T13:13:21.524Z,18.00
2022-11-01T13:24:13.087Z,18.40
2022-11-01T13:29:19.852Z,18.80
2022-11-01T13:34:33.005Z,18.80
2022-11-01T13:39:50.910Z,18.60
2022-11-01T13:45:09.305Z,18.30
2022-11-01T13:50:47.963Z,18.30
2022-11-01T13:55:56.682Z,18.20
2022-11-01T14:01:35.525Z,18.20
2022-11-01T14:06:41.941Z,18.10
2022-11-01T14:11:49.450Z,17.90
2022-11-01T14:16:52.844Z,17.90
2022-11-01T14:21:58.272Z,17.80
2022-11-01T14:32:54.732Z,17.20
2022-11-01T14:38:03.027Z,17.10
2022-11-01T14:43:17.031Z,17.20
2022-11-01T14:54:03.768Z,17.20
2022-11-01T14:59:15.649Z,17.10
2022-11-01T15:04:23.941Z,17.10
2022-11-01T15:09:28.821Z,17.00
2022-11-01T15:14:38.490Z,16.80
2022-11-01T15:19:41.794Z,16.60
2022-11-01T15:24:47.607Z,16.30
2022-11-01T15:29:52.510Z,16.10
2022-11-01T15:34:57.908Z,15.80
2022-11-01T15:40:16.527Z,15.50
2022-11-01T15:45:28.153Z,15.40
2022-11-01T15:50:47.134Z,15.20
2022-11-01T15:55:53.668Z,15.00
2022-11-01T16:01:02.978Z,14.80
2022-11-01T16:06:14.881Z,14.60
2022-11-01T16:11:20.948Z,14.30
2022-11-01T16:16:25.657Z,14.10
2022-11-01T16:21:31.120Z,13.90
2022-11-01T16:26:34.528Z,13.80
2022-11-01T16:31:41.888Z,13.60
2022-11-01T16:36:45.521Z,13.40
2022-11-01T16:41:49.697Z,13.30
2022-11-01T16:46:54.936Z,13.10
2022-11-01T16:51:58.262Z,13.00
2022-11-01T16:57:01.689Z,13.00
2022-11-01T17:02:17.252Z,13.20
2022-11-01T17:07:21.014Z,13.30
2022-11-01T17:12:24.210Z,13.50
2022-11-01T17:17:28.995Z,13.50
2022-11-01T17:22:35.463Z,13.50
2022-11-01T17:27:38.734Z,13.40
2022-11-01T17:32:44.161Z,13.40
2022-11-01T17:37:47.446Z,13.20
2022-11-01T17:42:51.168Z,13.00
2022-11-01T17:47:56.287Z,12.80
2022-11-01T17:52:59.954Z,12.50
2022-11-01T17:58:04.626Z,12.30
2022-11-01T18:03:09.756Z,12.00
2022-11-01T18:08:18.142Z,11.70
2022-11-01T18:13:39.591Z,11.60
2022-11-01T18:19:11.093Z,11.50
2022-11-01T18:24:22.436Z,11.20
2022-11-01T18:29:26.357Z,10.90
2022-11-01T18:34:39.783Z,10.50
2022-11-01T18:39:48.596Z,10.20
2022-11-01T18:44:53.289Z,10.00
2022-11-01T18:49:59.319Z,9.90
2022-11-01T18:55:02.766Z,9.70
2022-11-01T19:00:14.062Z,9.60
2022-11-01T19:05:19.752Z,9.50
2022-11-01T19:10:24.467Z,9.50
2022-11-01T19:15:31.521Z,9.40
2022-11-01T19:20:39.915Z,9.40
2022-11-01T19:25:45.384Z,9.40
2022-11-01T19:30:51.459Z,9.40
2022-11-01T19:35:58.639Z,9.10
2022-11-01T19:41:03.113Z,8.90
2022-11-01T19:46:06.471Z,8.70
2022-11-01T19:51:18.109Z,8.50
2022-11-01T19:56:26.751Z,8.40
2022-11-01T20:01:41.950Z,8.10
2022-11-01T20:06:51.378Z,8.00
2022-11-01T20:11:56.107Z,7.90
2022-11-01T20:16:59.488Z,7.90
2022-11-01T20:22:04.561Z,7.90
2022-11-01T20:27:07.968Z,7.80
2022-11-01T20:32:11.269Z,7.70
2022-11-01T20:37:28.491Z,7.70
2022-11-01T20:42:32.185Z,7.60
2022-11-01T20:47:35.618Z,7.50
2022-11-01T20:52:40.539Z,7.40
2022-11-01T20:57:44.021Z,7.30
2022-11-01T21:02:48.087Z,7.30
2022-11-01T21:08:01.231Z,7.10
2022-11-01T21:13:09.590Z,7.00
2022-11-01T21:18:34.652Z,6.90
2022-11-01T21:23:49.208Z,6.90
2022-11-01T21:28:54.807Z,6.90
2022-11-01T21:34:00.094Z,6.90
2022-11-01T21:39:12.147Z,6.80
2022-11-01T21:44:31.747Z,6.80
2022-11-01T21:49:37.465Z,6.70
2022-11-01T21:54:43.586Z,6.60
2022-11-01T21:59:47.255Z,6.50
2022-11-01T22:04:50.982Z,6.40
2022-11-01T22:09:57.763Z,6.30
2022-11-01T22:15:01.074Z,6.30
2022-11-01T22:20:06.133Z,6.30
2022-11-01T22:25:11.281Z,6.20
2022-11-01T22:30:15.179Z,6.20
2022-11-01T22:35:18.756Z,6.10
2022-11-01T22:40:23.408Z,6.10
2022-11-01T22:45:26.845Z,6.20
2022-11-01T22:50:30.377Z,6.20
2022-11-01T22:55:35.922Z,6.10
2022-11-01T23:00:39.595Z,6.20
2022-11-01T23:05:52.377Z,6.10
2022-11-01T23:10:57.736Z,6.10
2022-11-01T23:16:03.698Z,6.20
2022-11-01T23:21:09.046Z,6.30
2022-11-01T23:26:22.283Z,6.40
2022-11-01T23:31:28.914Z,6.70
2022-11-01T23:36:35.203Z,7.20
2022-11-01T23:47:20.866Z,7.60
2022-11-01T23:52:30.710Z,7.80
2022-11-01T23:57:35.344Z,7.90
